Time;durP1;ratioP1;P1;durP2;ratioP2;P2;SDS_P1;SDS_P2;PMS_P1;PMS_P2;Temp;Humidity;BMP_temperature;BMP_pressure;BME280_temperature;BME280_humidity;BME280_pressure;Samples;Min_cycle;Max_cycle;Signal;HPM_P1;HPM_P2
2021/09/26 00:01:31;;;;;;;28.42;19.27;;;;;;;;;;4318471;33;20202;-77
2021/09/26 00:03:56;;;;;;;33.08;19.87;;;;;;;;;;4319637;33;20222;-77
2021/09/26 00:06:24;;;;;;;30.70;20.17;;;;;;;;;;4319547;33;20203;-77
2021/09/26 00:08:50;;;;;;;27.42;18.85;;;;;;;;;;4319234;33;20179;-77
2021/09/26 00:11:15;;;;;;;31.15;19.65;;;;;;;;;;4319221;33;20183;-77
2021/09/26 00:13:42;;;;;;;31.40;19.67;;;;;;;;;;4319283;33;20262;-77
2021/09/26 00:16:11;;;;;;;27.98;19.02;;;;;;;;;;4332734;33;20140;-77
2021/09/26 00:18:37;;;;;;;32.63;21.08;;;;;;;;;;4318972;33;20186;-77
2021/09/26 00:21:02;;;;;;;30.80;20.42;;;;;;;;;;4319141;33;20164;-77
2021/09/26 00:23:31;;;;;;;26.23;18.50;;;;;;;;;;4319031;33;20164;-77
2021/09/26 00:25:56;;;;;;;31.48;19.02;;;;;;;;;;4333362;33;20216;-77
2021/09/26 00:28:24;;;;;;;27.95;18.98;;;;;;;;;;4319141;33;20163;-76
2021/09/26 00:30:50;;;;;;;30.23;18.23;;;;;;;;;;4318539;33;20657;-76
2021/09/26 00:33:28;;;;;;;25.77;17.42;;;;;;;;;;4318331;33;20159;-77
2021/09/26 00:36:33;;;;;;;34.38;22.02;;;;;;;;;;4318661;33;20159;-77
2021/09/26 00:38:58;;;;;;;31.45;20.42;;;;;;;;;;4318012;33;20175;-78
2021/09/26 00:41:24;;;;;;;31.75;21.05;;;;;;;;;;4319485;33;20164;-78
2021/09/26 00:43:49;;;;;;;26.65;17.62;;;;;;;;;;4319501;33;20164;-78
2021/09/26 00:46:15;;;;;;;33.88;20.92;;;;;;;;;;4318562;33;20194;-77
2021/09/26 00:48:40;;;;;;;28.30;18.10;;;;;;;;;;4318698;33;20504;-77
2021/09/26 00:51:16;;;;;;;32.20;21.42;;;;;;;;;;4318572;33;20530;-77
2021/09/26 00:53:42;;;;;;;27.95;18.92;;;;;;;;;;4331937;33;20171;-77
2021/09/26 00:56:10;;;;;;;31.30;21.20;;;;;;;;;;4317834;33;20493;-77
2021/09/26 00:58:36;;;;;;;28.05;19.25;;;;;;;;;;4318290;33;20211;-77
2021/09/26 01:01:02;;;;;;;27.00;18.80;;;;;;;;;;4317904;33;20168;-77
2021/09/26 01:03:27;;;;;;;35.65;22.30;;;;;;;;;;4317692;33;20221;-78
2021/09/26 01:05:58;;;;;;;29.90;20.08;;;;;;;;;;4317667;33;20243;-77
2021/09/26 01:08:26;;;;;;;35.40;22.40;;;;;;;;;;4318617;33;20182;-77
2021/09/26 01:11:12;;;;;;;34.85;21.70;;;;;;;;;;4318126;33;20180;-77
2021/09/26 01:13:41;;;;;;;30.25;20.60;;;;;;;;;;4317713;33;20218;-77
2021/09/26 01:16:21;;;;;;;28.98;19.52;;;;;;;;;;4317756;33;20214;-77
2021/09/26 01:19:06;;;;;;;34.42;21.12;;;;;;;;;;4318102;33;20201;-77
2021/09/26 01:22:00;;;;;;;31.85;20.02;;;;;;;;;;4317686;33;20568;-77
2021/09/26 01:25:06;;;;;;;34.97;21.67;;;;;;;;;;4315636;33;20180;-77
2021/09/26 01:31:11;;;;;;;28.17;18.23;;;;;;;;;;4285851;33;20190;-77
2021/09/26 01:34:24;;;;;;;;;;;;;;;;;;;;;
2021/09/26 01:40:30;;;;;;;28.17;19.00;;;;;;;;;;4270973;33;20149;-77
2021/09/26 01:43:15;;;;;;;28.25;18.37;;;;;;;;;;4258470;33;20168;-79
2021/09/26 01:45:43;;;;;;;31.95;20.27;;;;;;;;;;4316134;33;20172;-78
2021/09/26 01:48:11;;;;;;;28.30;18.33;;;;;;;;;;4317804;33;20198;-78
2021/09/26 01:50:38;;;;;;;40.03;22.08;;;;;;;;;;4330491;33;20198;-78
2021/09/26 01:53:09;;;;;;;30.25;20.45;;;;;;;;;;4317723;33;20163;-78
2021/09/26 01:55:40;;;;;;;31.67;20.35;;;;;;;;;;4318131;33;20179;-77
2021/09/26 01:58:17;;;;;;;36.22;21.62;;;;;;;;;;4317242;33;20163;-77
2021/09/26 02:00:46;;;;;;;31.67;21.60;;;;;;;;;;4314982;33;20175;-77
2021/09/26 02:06:06;;;;;;;30.33;20.98;;;;;;;;;;4242722;33;20181;-77
2021/09/26 02:08:42;;;;;;;29.20;19.37;;;;;;;;;;4306186;33;20229;-77
2021/09/26 02:11:17;;;;;;;31.90;20.17;;;;;;;;;;4317423;33;20159;-77
2021/09/26 02:13:44;;;;;;;30.45;20.45;;;;;;;;;;4317511;33;20515;-77
2021/09/26 02:16:27;;;;;;;32.80;20.10;;;;;;;;;;4317148;33;20179;-77
2021/09/26 02:18:53;;;;;;;36.08;20.37;;;;;;;;;;4317394;33;20175;-77
2021/09/26 02:21:21;;;;;;;41.25;22.37;;;;;;;;;;4317534;33;20182;-78
2021/09/26 02:23:48;;;;;;;34.85;22.27;;;;;;;;;;4330827;33;20152;-78
2021/09/26 02:26:13;;;;;;;30.65;20.67;;;;;;;;;;4317028;33;20244;-78
2021/09/26 02:28:39;;;;;;;34.85;21.77;;;;;;;;;;4317054;33;20163;-77
2021/09/26 02:31:07;;;;;;;35.17;22.10;;;;;;;;;;4317358;33;20222;-77
2021/09/26 02:33:36;;;;;;;31.60;22.00;;;;;;;;;;4317927;33;20194;-77
2021/09/26 02:36:05;;;;;;;33.20;19.95;;;;;;;;;;4316982;33;20191;-77
2021/09/26 02:38:31;;;;;;;31.23;19.30;;;;;;;;;;4316829;33;20186;-77
2021/09/26 02:41:01;;;;;;;27.98;19.50;;;;;;;;;;4317155;33;20493;-77
2021/09/26 02:43:38;;;;;;;31.25;21.02;;;;;;;;;;4317091;33;20155;-77
2021/09/26 02:46:11;;;;;;;35.97;22.00;;;;;;;;;;4316863;33;20155;-77
2021/09/26 02:48:37;;;;;;;31.98;20.88;;;;;;;;;;4317248;33;20222;-77
2021/09/26 02:51:05;;;;;;;36.50;22.83;;;;;;;;;;4330474;33;20148;-77
2021/09/26 02:53:31;;;;;;;34.40;21.48;;;;;;;;;;4317134;33;20182;-77
2021/09/26 02:56:00;;;;;;;33.58;21.00;;;;;;;;;;4317255;33;20160;-77
2021/09/26 02:58:26;;;;;;;32.92;21.27;;;;;;;;;;4317665;33;20152;-77
2021/09/26 03:01:37;;;;;;;33.78;21.45;;;;;;;;;;4317000;33;20183;-77
2021/09/26 03:03:37;;;;;;;30.70;19.87;;;;;;;;;;4321828;33;20167;-77
2021/09/26 03:06:05;;;;;;;37.33;21.65;;;;;;;;;;4319919;33;20152;-77
2021/09/26 03:08:33;;;;;;;31.60;20.55;;;;;;;;;;4319322;33;20190;-77
2021/09/26 03:11:00;;;;;;;27.90;19.25;;;;;;;;;;4319337;33;20155;-77
2021/09/26 03:13:27;;;;;;;28.92;19.10;;;;;;;;;;4319304;33;20151;-77
2021/09/26 03:15:53;;;;;;;25.85;18.20;;;;;;;;;;4317601;33;20501;-77
2021/09/26 03:18:21;;;;;;;26.23;18.30;;;;;;;;;;4319436;33;20153;-77
2021/09/26 03:20:46;;;;;;;29.83;20.20;;;;;;;;;;4319311;33;20159;-77
2021/09/26 03:23:14;;;;;;;31.17;21.45;;;;;;;;;;4319031;33;20218;-77
2021/09/26 03:25:49;;;;;;;26.80;19.27;;;;;;;;;;4319738;33;20186;-77
2021/09/26 03:28:17;;;;;;;27.87;18.37;;;;;;;;;;4319586;33;20166;-77
2021/09/26 03:30:51;;;;;;;26.45;18.65;;;;;;;;;;4319225;33;20183;-76
2021/09/26 03:36:35;;;;;;;31.45;19.42;;;;;;;;;;4258816;33;20184;-77
2021/09/26 03:39:00;;;;;;;29.48;20.73;;;;;;;;;;4319699;33;20496;-76
2021/09/26 03:41:26;;;;;;;32.25;20.48;;;;;;;;;;4318940;33;20236;-76
2021/09/26 03:43:51;;;;;;;34.60;21.90;;;;;;;;;;4318777;33;20203;-76
2021/09/26 03:46:16;;;;;;;35.55;21.70;;;;;;;;;;4318863;33;20156;-76
2021/09/26 03:48:42;;;;;;;34.08;21.30;;;;;;;;;;4318768;33;20177;-76
2021/09/26 03:51:07;;;;;;;31.92;20.45;;;;;;;;;;4319518;33;20152;-76
2021/09/26 03:54:00;;;;;;;35.60;23.55;;;;;;;;;;4318775;33;20160;-76
2021/09/26 03:56:24;;;;;;;36.53;21.77;;;;;;;;;;4332158;33;20167;-76
2021/09/26 03:58:50;;;;;;;33.38;21.77;;;;;;;;;;4318793;33;20259;-76
2021/09/26 04:01:25;;;;;;;29.98;20.75;;;;;;;;;;4318459;33;20600;-76
2021/09/26 04:03:53;;;;;;;30.42;21.30;;;;;;;;;;4332495;33;20222;-76
2021/09/26 04:06:18;;;;;;;34.97;21.70;;;;;;;;;;4319082;33;20583;-76
2021/09/26 04:08:44;;;;;;;34.40;22.95;;;;;;;;;;4318602;33;20187;-77
2021/09/26 04:11:09;;;;;;;27.85;20.12;;;;;;;;;;4332885;33;20228;-76
2021/09/26 04:13:37;;;;;;;38.45;23.23;;;;;;;;;;4346274;33;20557;-76
2021/09/26 04:16:03;;;;;;;39.78;23.90;;;;;;;;;;4333791;33;20472;-77
2021/09/26 04:18:31;;;;;;;37.13;23.35;;;;;;;;;;4333086;33;20174;-76
2021/09/26 04:20:57;;;;;;;35.28;23.98;;;;;;;;;;4332950;33;20243;-76
2021/09/26 04:23:22;;;;;;;38.40;24.55;;;;;;;;;;4333748;33;20596;-76
2021/09/26 04:25:47;;;;;;;39.97;23.05;;;;;;;;;;4333199;33;20222;-76
2021/09/26 04:28:13;;;;;;;36.40;24.42;;;;;;;;;;4332787;33;20155;-77
2021/09/26 04:30:38;;;;;;;36.30;22.70;;;;;;;;;;4333444;33;20174;-76
2021/09/26 04:33:15;;;;;;;36.15;22.90;;;;;;;;;;4332901;33;20465;-76
2021/09/26 04:35:40;;;;;;;37.80;24.90;;;;;;;;;;4326213;33;20615;-77
2021/09/26 04:38:05;;;;;;;37.08;24.98;;;;;;;;;;4333192;33;20151;-76
2021/09/26 04:40:31;;;;;;;36.78;24.15;;;;;;;;;;4332757;33;20179;-76
2021/09/26 04:42:56;;;;;;;43.63;26.85;;;;;;;;;;4332650;33;20155;-76
2021/09/26 04:45:21;;;;;;;44.35;28.98;;;;;;;;;;4333077;33;20462;-77
2021/09/26 04:47:47;;;;;;;41.85;26.08;;;;;;;;;;4332825;33;20516;-77
2021/09/26 04:50:12;;;;;;;50.35;29.83;;;;;;;;;;4333302;33;20477;-77
2021/09/26 04:52:38;;;;;;;50.58;32.05;;;;;;;;;;4332442;33;20158;-77
2021/09/26 04:55:04;;;;;;;51.80;29.50;;;;;;;;;;4345986;33;20155;-77
2021/09/26 04:57:29;;;;;;;50.50;31.23;;;;;;;;;;4333111;33;20589;-77
2021/09/26 05:00:01;;;;;;;46.85;28.42;;;;;;;;;;4332513;33;20230;-77
2021/09/26 05:02:30;;;;;;;60.88;35.75;;;;;;;;;;4332146;33;20167;-77
2021/09/26 05:04:56;;;;;;;58.13;34.03;;;;;;;;;;4332371;33;20254;-77
2021/09/26 05:07:24;;;;;;;55.65;32.97;;;;;;;;;;4332605;33;20187;-77
2021/09/26 05:09:50;;;;;;;53.25;32.25;;;;;;;;;;4332491;33;20177;-78
2021/09/26 05:12:15;;;;;;;56.92;34.63;;;;;;;;;;4332310;33;20155;-77
2021/09/26 05:14:46;;;;;;;59.03;36.20;;;;;;;;;;4332378;33;20229;-78
2021/09/26 05:17:14;;;;;;;59.42;35.60;;;;;;;;;;4332363;33;20609;-77
2021/09/26 05:19:46;;;;;;;64.75;37.72;;;;;;;;;;4332191;33;20227;-78
2021/09/26 05:22:11;;;;;;;52.60;33.70;;;;;;;;;;4332124;33;20151;-78
2021/09/26 05:24:37;;;;;;;57.78;35.17;;;;;;;;;;4331942;33;20214;-77
2021/09/26 05:27:03;;;;;;;57.03;35.40;;;;;;;;;;4331959;33;20151;-77
2021/09/26 05:29:28;;;;;;;59.45;36.95;;;;;;;;;;4332077;33;20226;-78
2021/09/26 05:31:54;;;;;;;64.07;38.05;;;;;;;;;;4332102;33;20632;-77
2021/09/26 05:34:19;;;;;;;66.37;39.80;;;;;;;;;;4332273;33;20532;-77
2021/09/26 05:36:45;;;;;;;68.95;40.20;;;;;;;;;;4332039;33;20156;-78
2021/09/26 05:39:10;;;;;;;64.50;40.22;;;;;;;;;;4332024;33;20194;-77
2021/09/26 05:41:36;;;;;;;59.15;37.50;;;;;;;;;;4332308;33;20194;-77
2021/09/26 05:44:01;;;;;;;75.37;42.22;;;;;;;;;;4331879;33;20210;-77
2021/09/26 05:46:26;;;;;;;73.43;41.65;;;;;;;;;;4332194;33;20263;-77
2021/09/26 05:48:51;;;;;;;64.95;38.70;;;;;;;;;;4332149;33;20203;-77
2021/09/26 05:51:17;;;;;;;66.68;38.80;;;;;;;;;;4331972;33;20182;-78
2021/09/26 05:53:50;;;;;;;63.13;39.88;;;;;;;;;;4345230;33;20211;-78
2021/09/26 05:56:25;;;;;;;72.05;42.08;;;;;;;;;;4332247;33;20144;-78
2021/09/26 05:59:01;;;;;;;62.40;38.08;;;;;;;;;;4331464;33;20261;-78
2021/09/26 06:01:30;;;;;;;68.03;40.58;;;;;;;;;;4332133;33;20159;-78
2021/09/26 06:03:58;;;;;;;71.05;39.42;;;;;;;;;;4317889;33;20171;-78
2021/09/26 06:06:23;;;;;;;66.20;41.15;;;;;;;;;;4317150;33;20155;-78
2021/09/26 06:08:58;;;;;;;61.55;39.80;;;;;;;;;;4317248;33;20148;-78
2021/09/26 06:11:23;;;;;;;68.47;41.25;;;;;;;;;;4317510;33;20197;-78
2021/09/26 06:13:51;;;;;;;71.32;42.65;;;;;;;;;;4317055;33;20161;-78
2021/09/26 06:16:17;;;;;;;52.47;34.78;;;;;;;;;;4330422;33;20135;-78
2021/09/26 06:18:42;;;;;;;56.70;34.45;;;;;;;;;;4330780;33;20517;-78
2021/09/26 06:21:08;;;;;;;71.95;41.65;;;;;;;;;;4317064;33;20612;-78
2021/09/26 06:23:33;;;;;;;66.12;41.13;;;;;;;;;;4316841;33;20206;-78
2021/09/26 06:26:00;;;;;;;57.45;36.67;;;;;;;;;;4317340;33;20171;-77
2021/09/26 06:28:25;;;;;;;57.35;36.78;;;;;;;;;;4317203;33;20210;-77
2021/09/26 06:30:51;;;;;;;61.15;37.42;;;;;;;;;;4317113;33;20163;-77
2021/09/26 06:33:16;;;;;;;52.17;35.33;;;;;;;;;;4317489;33;20172;-77
2021/09/26 06:35:41;;;;;;;57.28;34.00;;;;;;;;;;4316964;33;20226;-78
2021/09/26 06:38:09;;;;;;;60.00;36.33;;;;;;;;;;4318329;33;20160;-79
2021/09/26 06:40:38;;;;;;;57.40;37.60;;;;;;;;;;4319666;33;20156;-78
2021/09/26 06:43:12;;;;;;;58.05;38.15;;;;;;;;;;4319859;33;20164;-78
2021/09/26 06:45:45;;;;;;;61.28;36.80;;;;;;;;;;4320339;33;20160;-78
2021/09/26 06:48:10;;;;;;;61.55;39.28;;;;;;;;;;4333732;33;20136;-79
2021/09/26 06:50:36;;;;;;;55.28;36.65;;;;;;;;;;4307966;33;20199;-76
2021/09/26 06:53:01;;;;;;;55.00;35.33;;;;;;;;;;4319859;33;20310;-76
2021/09/26 06:55:26;;;;;;;62.03;38.38;;;;;;;;;;4320219;33;20178;-76
2021/09/26 06:57:51;;;;;;;59.42;36.60;;;;;;;;;;4319353;33;20242;-76
2021/09/26 07:00:17;;;;;;;54.70;35.45;;;;;;;;;;4319428;33;20246;-76
2021/09/26 07:02:45;;;;;;;57.05;36.22;;;;;;;;;;4318980;33;20175;-77
2021/09/26 07:05:14;;;;;;;55.85;36.03;;;;;;;;;;4332209;33;20164;-76
2021/09/26 07:07:58;;;;;;;;;;;;;;;;;;;;;
2021/09/26 07:10:23;;;;;;;53.45;35.70;;;;;;;;;;4333658;33;20155;-76
2021/09/26 07:12:51;;;;;;;52.08;34.42;;;;;;;;;;4319336;33;20187;-76
2021/09/26 07:15:20;;;;;;;49.90;31.62;;;;;;;;;;4312973;33;20160;-76
2021/09/26 07:17:45;;;;;;;56.17;36.60;;;;;;;;;;4319103;33;20194;-76
2021/09/26 07:20:29;;;;;;;;;;;;;;;;;;;;;
2021/09/26 07:22:57;;;;;;;59.75;37.95;;;;;;;;;;4310991;33;20163;-76
2021/09/26 07:25:22;;;;;;;50.03;34.03;;;;;;;;;;4318170;33;20199;-76
2021/09/26 07:27:50;;;;;;;51.03;36.08;;;;;;;;;;4318783;33;20159;-76
2021/09/26 07:30:16;;;;;;;51.20;31.77;;;;;;;;;;4318412;33;20159;-76
2021/09/26 07:32:41;;;;;;;44.22;31.27;;;;;;;;;;4318122;33;20218;-77
2021/09/26 07:35:18;;;;;;;49.13;32.28;;;;;;;;;;4318144;33;20225;-76
2021/09/26 07:37:44;;;;;;;45.80;32.20;;;;;;;;;;4318396;33;20182;-77
2021/09/26 07:40:15;;;;;;;48.67;33.03;;;;;;;;;;4318910;33;20168;-76
2021/09/26 07:42:40;;;;;;;48.25;31.95;;;;;;;;;;4332520;33;20171;-76
2021/09/26 07:45:09;;;;;;;47.13;32.75;;;;;;;;;;4318684;33;20163;-78
2021/09/26 07:47:34;;;;;;;43.55;30.70;;;;;;;;;;4318663;33;20234;-78
2021/09/26 07:50:00;;;;;;;53.47;35.88;;;;;;;;;;4332127;33;20570;-77
2021/09/26 07:52:26;;;;;;;44.80;31.83;;;;;;;;;;4318652;33;20159;-77
2021/09/26 07:54:52;;;;;;;49.50;33.75;;;;;;;;;;4318765;33;20272;-75
2021/09/26 07:57:19;;;;;;;44.40;30.85;;;;;;;;;;4318663;33;20190;-76
2021/09/26 07:59:48;;;;;;;42.75;30.48;;;;;;;;;;4318036;33;20179;-76
2021/09/26 08:02:14;;;;;;;45.75;33.03;;;;;;;;;;4318271;33;20219;-76
2021/09/26 08:04:39;;;;;;;47.00;30.95;;;;;;;;;;4318914;33;20222;-76
2021/09/26 08:07:05;;;;;;;44.70;31.37;;;;;;;;;;4318877;33;20163;-76
2021/09/26 08:09:30;;;;;;;47.05;31.10;;;;;;;;;;4332291;33;20151;-76
2021/09/26 08:11:56;;;;;;;44.60;30.05;;;;;;;;;;4318535;33;20164;-76
2021/09/26 08:14:21;;;;;;;49.28;33.55;;;;;;;;;;4318304;33;20234;-76
2021/09/26 08:16:46;;;;;;;43.92;28.65;;;;;;;;;;4318308;33;20187;-76
2021/09/26 08:19:12;;;;;;;42.55;30.48;;;;;;;;;;4318469;33;20266;-76
2021/09/26 08:21:37;;;;;;;47.38;32.38;;;;;;;;;;4318511;33;20183;-76
2021/09/26 08:24:06;;;;;;;44.80;33.75;;;;;;;;;;4318072;33;20209;-76
2021/09/26 08:26:31;;;;;;;40.28;29.15;;;;;;;;;;4318549;33;20568;-76
2021/09/26 08:28:57;;;;;;;40.78;28.83;;;;;;;;;;4318297;33;20175;-76
2021/09/26 08:31:22;;;;;;;43.60;30.98;;;;;;;;;;4318132;33;20179;-76
2021/09/26 08:33:47;;;;;;;39.05;29.87;;;;;;;;;;4318306;33;20191;-76
2021/09/26 08:36:21;;;;;;;40.00;27.58;;;;;;;;;;4317869;33;20219;-77
2021/09/26 08:38:52;;;;;;;40.03;29.33;;;;;;;;;;4318786;33;20152;-77
2021/09/26 08:41:18;;;;;;;37.85;28.23;;;;;;;;;;4318276;33;20197;-77
2021/09/26 08:43:48;;;;;;;37.58;28.73;;;;;;;;;;4317859;33;20163;-77
2021/09/26 08:46:17;;;;;;;39.65;27.00;;;;;;;;;;4318051;33;20219;-77
2021/09/26 08:48:43;;;;;;;36.58;26.60;;;;;;;;;;4318226;33;20190;-77
2021/09/26 08:51:11;;;;;;;40.28;29.17;;;;;;;;;;4318072;33;20159;-77
2021/09/26 08:53:43;;;;;;;41.65;26.95;;;;;;;;;;4331076;33;20588;-76
2021/09/26 08:56:08;;;;;;;37.75;26.20;;;;;;;;;;4318160;33;20176;-76
2021/09/26 08:58:33;;;;;;;35.53;25.67;;;;;;;;;;4317901;33;20163;-77
2021/09/26 09:01:00;;;;;;;32.58;23.10;;;;;;;;;;4317435;33;20217;-77
2021/09/26 09:03:25;;;;;;;32.75;23.25;;;;;;;;;;4315576;33;20188;-76
2021/09/26 09:05:54;;;;;;;37.17;26.25;;;;;;;;;;4315148;33;20223;-76
2021/09/26 09:08:26;;;;;;;33.58;23.45;;;;;;;;;;4315097;33;20183;-77
2021/09/26 09:10:52;;;;;;;29.50;21.95;;;;;;;;;;4315187;33;20187;-75
2021/09/26 09:13:19;;;;;;;32.13;22.15;;;;;;;;;;4317710;33;20215;-77
2021/09/26 09:15:54;;;;;;;31.98;22.33;;;;;;;;;;4317858;33;20152;-78
2021/09/26 09:18:20;;;;;;;28.98;21.12;;;;;;;;;;4317382;33;20163;-77
2021/09/26 09:20:46;;;;;;;27.33;21.60;;;;;;;;;;4317550;33;20186;-78
2021/09/26 09:23:13;;;;;;;27.25;19.80;;;;;;;;;;4317407;33;20262;-77
2021/09/26 09:25:44;;;;;;;26.42;19.33;;;;;;;;;;4317965;33;20181;-77
2021/09/26 09:28:20;;;;;;;23.67;18.02;;;;;;;;;;4326053;33;20605;-77
2021/09/26 09:30:52;;;;;;;26.40;18.75;;;;;;;;;;4332012;33;20183;-77
2021/09/26 09:33:18;;;;;;;27.30;19.27;;;;;;;;;;4332362;33;20155;-76
2021/09/26 09:35:45;;;;;;;29.50;20.83;;;;;;;;;;4332503;33;20206;-76
2021/09/26 09:38:11;;;;;;;26.02;19.67;;;;;;;;;;4331890;33;20190;-77
2021/09/26 09:40:52;;;;;;;24.45;18.30;;;;;;;;;;4331940;33;20247;-79
2021/09/26 09:43:18;;;;;;;24.73;17.33;;;;;;;;;;4332131;33;20190;-78
2021/09/26 09:45:50;;;;;;;22.67;17.10;;;;;;;;;;4331818;33;20167;-77
2021/09/26 09:48:20;;;;;;;22.95;16.92;;;;;;;;;;4332010;33;20183;-76
2021/09/26 09:51:05;;;;;;;24.02;19.48;;;;;;;;;;4332059;33;20652;-78
2021/09/26 09:53:33;;;;;;;26.08;18.67;;;;;;;;;;4331774;33;20194;-77
2021/09/26 09:56:02;;;;;;;24.02;16.80;;;;;;;;;;4332380;33;20164;-77
2021/09/26 09:58:41;;;;;;;23.75;18.05;;;;;;;;;;4331798;33;20155;-76
2021/09/26 10:01:11;;;;;;;22.48;16.65;;;;;;;;;;4331869;33;20167;-77
2021/09/26 10:03:40;;;;;;;21.85;16.33;;;;;;;;;;4331470;33;20486;-78
2021/09/26 10:06:25;;;;;;;21.98;15.95;;;;;;;;;;4345099;33;20144;-79
2021/09/26 10:09:18;;;;;;;25.50;18.75;;;;;;;;;;4323862;33;20175;-77
2021/09/26 10:11:47;;;;;;;25.02;20.20;;;;;;;;;;4340919;33;20489;-77
2021/09/26 10:14:12;;;;;;;23.95;15.95;;;;;;;;;;4334571;33;20198;-79
2021/09/26 10:16:37;;;;;;;24.87;18.25;;;;;;;;;;4334791;33;20214;-77
2021/09/26 10:19:06;;;;;;;25.62;18.77;;;;;;;;;;4334649;33;20285;-77
2021/09/26 10:21:32;;;;;;;25.65;17.60;;;;;;;;;;4334564;33;20151;-77
2021/09/26 10:23:58;;;;;;;22.62;16.90;;;;;;;;;;4334860;33;20163;-76
2021/09/26 10:26:26;;;;;;;23.87;17.58;;;;;;;;;;4334996;33;20151;-76
2021/09/26 10:28:53;;;;;;;23.05;16.00;;;;;;;;;;4333976;33;20265;-76
2021/09/26 10:31:19;;;;;;;20.40;14.60;;;;;;;;;;4334260;33;20159;-76
2021/09/26 10:33:45;;;;;;;25.37;15.75;;;;;;;;;;4348565;33;20226;-77
2021/09/26 10:36:11;;;;;;;19.92;14.15;;;;;;;;;;4334650;33;20156;-78
2021/09/26 10:38:37;;;;;;;20.20;14.98;;;;;;;;;;4322310;33;20154;-78
2021/09/26 10:41:03;;;;;;;23.38;15.80;;;;;;;;;;4334216;33;20187;-77
2021/09/26 10:43:29;;;;;;;21.00;16.05;;;;;;;;;;4334024;33;20186;-77
2021/09/26 10:46:13;;;;;;;21.92;16.10;;;;;;;;;;4347974;33;20166;-77
2021/09/26 10:49:01;;;;;;;22.62;15.32;;;;;;;;;;4334533;33;20205;-78
2021/09/26 10:51:44;;;;;;;20.55;15.25;;;;;;;;;;4324881;33;20160;-77
2021/09/26 10:54:21;;;;;;;21.08;15.13;;;;;;;;;;4334459;33;20178;-77
2021/09/26 10:56:47;;;;;;;19.77;14.68;;;;;;;;;;4334076;33;20151;-77
2021/09/26 10:59:12;;;;;;;18.00;12.27;;;;;;;;;;4334078;33;20220;-77
2021/09/26 11:01:38;;;;;;;17.65;12.95;;;;;;;;;;4333949;33;20198;-77
2021/09/26 11:04:03;;;;;;;18.12;13.02;;;;;;;;;;4333922;33;20593;-77
2021/09/26 11:06:29;;;;;;;16.33;13.18;;;;;;;;;;4334319;33;20194;-78
2021/09/26 11:08:55;;;;;;;18.67;13.02;;;;;;;;;;4333956;33;20589;-77
2021/09/26 11:11:50;;;;;;;17.87;12.63;;;;;;;;;;4334456;33;20155;-77
2021/09/26 11:14:16;;;;;;;18.58;13.48;;;;;;;;;;4318283;33;20163;-78
2021/09/26 11:16:47;;;;;;;17.65;12.18;;;;;;;;;;4334388;33;20151;-78
2021/09/26 11:19:13;;;;;;;15.45;11.88;;;;;;;;;;4333999;33;20642;-78
2021/09/26 11:21:38;;;;;;;16.37;11.15;;;;;;;;;;4334185;33;20159;-77
2021/09/26 11:24:04;;;;;;;17.00;11.93;;;;;;;;;;4346943;33;20580;-77
2021/09/26 11:26:48;;;;;;;13.23;10.48;;;;;;;;;;4333709;33;20198;-77
2021/09/26 11:29:13;;;;;;;14.55;11.00;;;;;;;;;;4322519;33;20635;-77
2021/09/26 11:31:41;;;;;;;13.07;11.32;;;;;;;;;;4334080;33;20163;-77
2021/09/26 11:34:06;;;;;;;14.93;11.40;;;;;;;;;;4333934;33;20497;-77
2021/09/26 11:36:33;;;;;;;14.35;11.12;;;;;;;;;;4333561;33;20191;-78
2021/09/26 11:39:18;;;;;;;15.35;11.07;;;;;;;;;;4347183;33;20132;-77
2021/09/26 11:41:43;;;;;;;14.25;10.57;;;;;;;;;;4333690;33;20164;-78
2021/09/26 11:44:09;;;;;;;15.35;11.30;;;;;;;;;;4332945;33;20179;-78
2021/09/26 11:46:35;;;;;;;13.45;11.07;;;;;;;;;;4333704;33;20159;-78
2021/09/26 11:49:05;;;;;;;12.68;10.13;;;;;;;;;;4333201;33;20182;-79
2021/09/26 11:51:30;;;;;;;13.43;10.68;;;;;;;;;;4346865;33;20223;-78
2021/09/26 11:53:56;;;;;;;14.57;11.98;;;;;;;;;;4333844;33;20155;-77
2021/09/26 11:56:26;;;;;;;15.23;10.98;;;;;;;;;;4333364;33;20213;-77
2021/09/26 11:58:55;;;;;;;15.13;12.07;;;;;;;;;;4333097;33;20993;-77
2021/09/26 12:01:33;;;;;;;15.25;11.45;;;;;;;;;;4333504;33;20147;-78
2021/09/26 12:04:09;;;;;;;15.32;11.82;;;;;;;;;;4333141;33;20167;-78
2021/09/26 12:06:37;;;;;;;16.05;12.35;;;;;;;;;;4333064;33;20651;-79
2021/09/26 12:09:03;;;;;;;15.68;13.52;;;;;;;;;;4333407;33;20190;-79
2021/09/26 12:11:29;;;;;;;16.27;13.45;;;;;;;;;;4333636;33;20608;-77
2021/09/26 12:14:07;;;;;;;15.27;11.60;;;;;;;;;;4333239;33;20197;-78
2021/09/26 12:16:47;;;;;;;16.52;12.05;;;;;;;;;;4333456;33;20230;-78
2021/09/26 12:19:18;;;;;;;14.75;11.43;;;;;;;;;;4333006;33;20265;-78
2021/09/26 12:21:43;;;;;;;15.05;10.68;;;;;;;;;;4332433;33;20155;-78
2021/09/26 12:24:11;;;;;;;12.65;10.82;;;;;;;;;;4332766;33;20159;-78
2021/09/26 12:26:42;;;;;;;15.98;11.73;;;;;;;;;;4330680;33;20152;-79
2021/09/26 12:29:25;;;;;;;13.95;10.82;;;;;;;;;;4332725;33;20159;-78
2021/09/26 12:32:09;;;;;;;16.00;12.32;;;;;;;;;;4332782;33;20226;-77
2021/09/26 12:34:45;;;;;;;15.02;10.80;;;;;;;;;;4332687;33;20152;-78
2021/09/26 12:37:17;;;;;;;14.27;11.68;;;;;;;;;;4333028;33;20174;-78
2021/09/26 12:39:43;;;;;;;16.52;10.68;;;;;;;;;;4332103;33;20178;-77
2021/09/26 12:42:19;;;;;;;12.82;10.40;;;;;;;;;;4331809;33;20175;-78
2021/09/26 12:44:50;;;;;;;11.75;9.63;;;;;;;;;;4332243;33;20155;-81
2021/09/26 12:47:17;;;;;;;13.62;9.70;;;;;;;;;;4347274;33;20151;-80
2021/09/26 12:49:45;;;;;;;12.88;9.90;;;;;;;;;;4332493;33;20203;-78
2021/09/26 12:52:15;;;;;;;12.05;9.68;;;;;;;;;;4332528;33;20565;-79
2021/09/26 12:54:47;;;;;;;12.43;9.88;;;;;;;;;;4332660;33;20159;-79
2021/09/26 12:57:15;;;;;;;11.85;9.82;;;;;;;;;;4332228;33;20179;-79
2021/09/26 12:59:41;;;;;;;13.02;10.05;;;;;;;;;;4332861;33;20151;-79
2021/09/26 13:02:12;;;;;;;12.30;9.48;;;;;;;;;;4332533;33;20178;-79
2021/09/26 13:04:39;;;;;;;14.00;10.15;;;;;;;;;;4332886;33;20194;-78
2021/09/26 13:07:08;;;;;;;12.55;9.82;;;;;;;;;;4330444;33;20176;-79
2021/09/26 13:09:35;;;;;;;13.82;9.80;;;;;;;;;;4330552;33;20233;-79
2021/09/26 13:12:25;;;;;;;12.23;9.85;;;;;;;;;;4329815;33;20186;-78
2021/09/26 13:15:21;;;;;;;13.65;9.85;;;;;;;;;;4330239;33;20578;-80
2021/09/26 13:17:47;;;;;;;12.05;9.52;;;;;;;;;;4329690;33;20152;-79
2021/09/26 13:20:16;;;;;;;11.80;9.65;;;;;;;;;;4329565;33;20213;-79
2021/09/26 13:22:47;;;;;;;14.10;11.02;;;;;;;;;;4330262;33;20163;-80
2021/09/26 13:25:13;;;;;;;11.05;9.85;;;;;;;;;;4330607;33;20776;-79
2021/09/26 13:27:54;;;;;;;12.10;9.75;;;;;;;;;;4330093;33;20151;-79
2021/09/26 13:30:29;;;;;;;13.57;9.73;;;;;;;;;;4331350;33;20182;-79
2021/09/26 13:32:57;;;;;;;11.25;9.20;;;;;;;;;;4331014;33;20128;-78
2021/09/26 13:35:25;;;;;;;13.43;9.57;;;;;;;;;;4331120;33;20186;-78
2021/09/26 13:38:05;;;;;;;13.05;9.60;;;;;;;;;;4330768;33;20283;-79
2021/09/26 13:40:32;;;;;;;11.57;9.82;;;;;;;;;;4330050;33;20237;-78
2021/09/26 13:42:58;;;;;;;14.32;10.90;;;;;;;;;;4329787;33;20234;-79
2021/09/26 13:45:31;;;;;;;11.77;9.48;;;;;;;;;;4329801;33;20214;-78
2021/09/26 13:48:06;;;;;;;13.27;10.90;;;;;;;;;;4323379;33;20230;-79
2021/09/26 13:50:31;;;;;;;13.52;10.23;;;;;;;;;;4318234;33;20177;-78
2021/09/26 13:52:57;;;;;;;15.25;11.30;;;;;;;;;;4318487;33;20156;-78
2021/09/26 13:55:43;;;;;;;16.17;11.80;;;;;;;;;;4331482;33;20190;-78
2021/09/26 13:58:12;;;;;;;13.45;10.68;;;;;;;;;;4318179;33;20155;-79
2021/09/26 14:00:37;;;;;;;14.52;10.93;;;;;;;;;;4318123;33;20198;-79
2021/09/26 14:03:08;;;;;;;14.15;11.00;;;;;;;;;;4331567;33;20195;-78
2021/09/26 14:05:33;;;;;;;14.98;11.30;;;;;;;;;;4333190;33;20164;-79
2021/09/26 14:08:04;;;;;;;14.75;11.00;;;;;;;;;;4320718;33;20494;-78
2021/09/26 14:10:51;;;;;;;13.30;10.13;;;;;;;;;;4332742;33;20214;-78
2021/09/26 14:13:26;;;;;;;16.58;12.25;;;;;;;;;;4346457;33;20128;-78
2021/09/26 14:16:10;;;;;;;15.45;12.48;;;;;;;;;;4332924;33;20217;-78
2021/09/26 14:18:38;;;;;;;15.43;13.13;;;;;;;;;;4333040;33;20156;-78
2021/09/26 14:21:12;;;;;;;15.27;11.77;;;;;;;;;;4346517;33;20174;-77
2021/09/26 14:23:45;;;;;;;14.25;12.05;;;;;;;;;;4330196;33;20242;-78
2021/09/26 14:26:10;;;;;;;19.33;16.50;;;;;;;;;;4329997;33;20596;-78
2021/09/26 14:28:36;;;;;;;15.73;12.82;;;;;;;;;;4329801;33;20179;-78
2021/09/26 14:31:02;;;;;;;15.55;12.30;;;;;;;;;;4336666;33;20140;-78
2021/09/26 14:33:31;;;;;;;15.93;11.90;;;;;;;;;;4329744;33;20168;-78
2021/09/26 14:36:09;;;;;;;15.20;12.80;;;;;;;;;;4331200;33;20132;-77
2021/09/26 14:38:35;;;;;;;17.25;13.38;;;;;;;;;;4329458;33;20171;-77
2021/09/26 14:41:03;;;;;;;15.60;13.15;;;;;;;;;;4330522;33;20136;-78
2021/09/26 14:43:28;;;;;;;17.25;12.57;;;;;;;;;;4333755;33;20159;-79
2021/09/26 14:45:54;;;;;;;13.38;10.98;;;;;;;;;;4321004;33;20639;-79
2021/09/26 14:48:19;;;;;;;13.65;10.18;;;;;;;;;;4329383;33;20582;-78